Terminal Aerodrome Forecast
Issued by NWS Greer, SC

Home | Current Version | Previous Version | Text Only | Print | Product List | Glossary On
Versions: 1 2 3 4 5 6 7 8 9 10 11 12 13 14 15 16 17 18 19 20 21 22 23 24 25
536
FTUS42 KGSP 241130
TAFGSP
TAF
KGSP 241130Z 2412/2512 04007KT 2SM -SHRA BR SCT003 OVC006
      TEMPO 2412/2415 1SM -SHRA BR OVC002
     FM241500 04006KT 4SM -SHRA BR OVC005
     FM241700 03006KT 6SM BR VCSH OVC008
     FM242000 34005KT P6SM VCSH BKN025
     FM250000 31004KT P6SM BKN035
     FM250700 27004KT 6SM BR BKN025
     FM250900 26004KT 4SM BR BKN008=

USA.gov is the U.S. government's official web portal to all federal, state and local government web resources and services.